createdAt,value
2019-03-18T00:01:10.073Z,99796.00
2019-03-18T00:04:00.583Z,99795.64
2019-03-18T00:06:50.549Z,99794.89
2019-03-18T00:09:40.739Z,99783.30
2019-03-18T00:12:30.554Z,99786.44
2019-03-18T00:15:20.501Z,99801.23
2019-03-18T00:18:10.217Z,99795.49
2019-03-18T00:20:59.929Z,99792.72
2019-03-18T00:23:49.803Z,99799.45
2019-03-18T00:26:39.413Z,99808.86
2019-03-18T00:29:29.343Z,99823.50
2019-03-18T00:32:19.335Z,99837.02
2019-03-18T00:35:09.413Z,99848.20
2019-03-18T00:37:59.676Z,99843.80
2019-03-18T00:40:49.795Z,99837.35
2019-03-18T00:43:39.659Z,99840.64
2019-03-18T00:46:29.833Z,99836.47
2019-03-18T00:49:19.343Z,99833.47
2019-03-18T00:52:10.327Z,99851.23
2019-03-18T00:55:00.366Z,99855.04
2019-03-18T00:57:50.322Z,99856.53
2019-03-18T01:00:40.168Z,99856.56
2019-03-18T01:03:29.859Z,99859.67
2019-03-18T01:06:20.344Z,99862.64
2019-03-18T01:09:10.202Z,99861.36
2019-03-18T01:12:00.544Z,99865.19
2019-03-18T01:14:50.355Z,99867.56
2019-03-18T01:17:40.189Z,99862.41
2019-03-18T01:20:30.066Z,99864.45
2019-03-18T01:23:20.089Z,99865.13
2019-03-18T01:26:10.969Z,99858.24
2019-03-18T01:29:00.819Z,99864.19
2019-03-18T01:31:50.605Z,99859.88
2019-03-18T01:34:40.560Z,99866.13
2019-03-18T01:37:30.192Z,99871.83
2019-03-18T01:40:19.974Z,99875.94
2019-03-18T01:43:11.029Z,99874.45
2019-03-18T01:46:00.786Z,99860.50
2019-03-18T01:48:50.751Z,99886.20
2019-03-18T01:51:40.524Z,99892.44
2019-03-18T01:54:30.502Z,99891.27
2019-03-18T01:57:20.718Z,99886.20
2019-03-18T02:00:10.899Z,99899.98
2019-03-18T02:03:01.033Z,99903.59
2019-03-18T02:05:50.668Z,99901.33
2019-03-18T02:08:40.472Z,99900.50
2019-03-18T02:11:30.228Z,99903.05
2019-03-18T02:14:20.080Z,99905.10
2019-03-18T02:17:10.078Z,99898.02
2019-03-18T02:20:00.168Z,99891.31
2019-03-18T02:22:50.354Z,99888.37
2019-03-18T02:25:39.819Z,99901.53
2019-03-18T02:28:29.551Z,99891.84
2019-03-18T02:31:19.347Z,99892.38
2019-03-18T02:34:09.252Z,99895.39
2019-03-18T02:37:00.530Z,99894.55
2019-03-18T02:39:50.201Z,99895.94
2019-03-18T02:42:40.313Z,99910.66
2019-03-18T02:45:30.432Z,99910.22
2019-03-18T02:48:20.221Z,99915.30
2019-03-18T02:51:11.451Z,99932.45
2019-03-18T02:54:01.337Z,99934.44
2019-03-18T02:56:51.266Z,99935.14
2019-03-18T02:59:42.201Z,99935.58
2019-03-18T03:02:32.095Z,99942.30
2019-03-18T03:05:21.877Z,99941.14
2019-03-18T03:08:12.051Z,99945.80
2019-03-18T03:11:02.750Z,99949.03
2019-03-18T03:13:52.726Z,99959.03
2019-03-18T03:16:42.516Z,99962.95
2019-03-18T03:19:32.476Z,99965.64
2019-03-18T03:22:22.239Z,99975.66
2019-03-18T03:25:12.189Z,99977.92
2019-03-18T03:28:02.188Z,99983.20
2019-03-18T03:30:52.727Z,99980.47
2019-03-18T03:33:42.335Z,99984.32
2019-03-18T03:36:32.213Z,99988.72
2019-03-18T03:39:22.150Z,99990.23
2019-03-18T03:42:11.949Z,99994.27
2019-03-18T03:45:01.681Z,100013.12
2019-03-18T03:47:51.447Z,100018.30
2019-03-18T03:50:41.126Z,100018.69
2019-03-18T03:53:31.301Z,100015.58
2019-03-18T03:56:20.757Z,100015.39
2019-03-18T03:59:10.401Z,100029.55
2019-03-18T04:02:00.187Z,100010.88
2019-03-18T04:04:50.118Z,100008.92
2019-03-18T04:07:40.230Z,100003.84
2019-03-18T04:10:30.009Z,100009.34
2019-03-18T04:13:20.107Z,100005.72
2019-03-18T04:16:10.074Z,100012.66
2019-03-18T04:19:00.463Z,100014.63
2019-03-18T04:21:50.902Z,100011.20
2019-03-18T04:24:40.989Z,100017.43
2019-03-18T04:27:31.088Z,100020.93
2019-03-18T04:30:20.870Z,100019.09
2019-03-18T04:33:10.646Z,100022.52
2019-03-18T04:36:00.712Z,100033.05
2019-03-18T04:38:50.498Z,100026.45
2019-03-18T04:41:41.630Z,100013.05
2019-03-18T04:44:32.660Z,100012.12
2019-03-18T04:47:22.674Z,100012.63
2019-03-18T04:50:12.784Z,100008.70
2019-03-18T04:53:02.731Z,100004.80
2019-03-18T04:55:52.642Z,100014.99
2019-03-18T04:58:42.732Z,100014.91
2019-03-18T05:01:32.801Z,100024.91
2019-03-18T05:04:22.626Z,100019.73
2019-03-18T05:07:12.517Z,100016.84
2019-03-18T05:10:02.781Z,100009.84
2019-03-18T05:12:52.304Z,100006.05
2019-03-18T05:15:42.264Z,100005.72
2019-03-18T05:18:32.344Z,100017.78
2019-03-18T05:21:22.436Z,100023.26
2019-03-18T05:24:12.222Z,100026.16
2019-03-18T05:27:03.253Z,100024.38
2019-03-18T05:29:52.786Z,100027.47
2019-03-18T05:32:42.733Z,100015.73
2019-03-18T05:35:32.807Z,100025.11
2019-03-18T05:38:22.569Z,100023.55
2019-03-18T05:41:12.275Z,100027.47
2019-03-18T05:44:02.280Z,100035.52
2019-03-18T05:46:52.098Z,100039.64
2019-03-18T05:49:42.250Z,100037.58
2019-03-18T05:52:32.297Z,100039.75
2019-03-18T05:55:22.655Z,100034.59
2019-03-18T05:58:12.820Z,100026.74
2019-03-18T06:01:02.524Z,100032.53
2019-03-18T06:03:52.544Z,100045.83
2019-03-18T06:06:42.408Z,100047.08
2019-03-18T06:09:32.001Z,100050.45
2019-03-18T06:12:21.864Z,100040.34
2019-03-18T06:15:12.061Z,100053.50
2019-03-18T06:18:02.188Z,100056.47
2019-03-18T06:20:52.837Z,100062.81
2019-03-18T06:23:43.028Z,100054.89
2019-03-18T06:26:32.729Z,100058.39
2019-03-18T06:29:22.512Z,100067.52
2019-03-18T06:32:12.567Z,100072.77
2019-03-18T06:35:02.411Z,100064.86
2019-03-18T06:37:52.573Z,100073.48
2019-03-18T06:40:43.023Z,100074.37
2019-03-18T06:43:33.050Z,100070.97
2019-03-18T06:46:23.226Z,100070.02
2019-03-18T06:49:12.859Z,100066.14
2019-03-18T06:52:02.509Z,100074.43
2019-03-18T06:54:52.537Z,100068.38
2019-03-18T06:57:46.436Z,100059.56
2019-03-18T07:00:36.477Z,100069.21
2019-03-18T07:03:26.523Z,100073.17
2019-03-18T07:06:16.659Z,100074.80
2019-03-18T07:09:08.172Z,100083.19
2019-03-18T07:11:57.970Z,100082.59
2019-03-18T07:14:48.147Z,100082.04
2019-03-18T07:17:41.404Z,100075.83
2019-03-18T07:20:31.019Z,100077.18
2019-03-18T07:23:20.705Z,100075.32
2019-03-18T07:26:10.326Z,100075.07
2019-03-18T07:29:00.078Z,100070.22
2019-03-18T07:31:49.656Z,100072.78
2019-03-18T07:34:40.000Z,100080.98
2019-03-18T07:37:30.046Z,100083.55
2019-03-18T07:40:20.068Z,100081.73
2019-03-18T07:43:10.398Z,100097.77
2019-03-18T07:46:00.381Z,100105.77
2019-03-18T07:48:50.830Z,100103.33
2019-03-18T07:51:40.615Z,100102.85
2019-03-18T07:54:32.953Z,100112.78
2019-03-18T07:57:22.545Z,100115.39
2019-03-18T08:00:12.583Z,100100.87
2019-03-18T08:03:03.595Z,100116.02
2019-03-18T08:05:53.283Z,100120.56
2019-03-18T08:08:43.802Z,100117.38
2019-03-18T08:11:33.900Z,100127.03
2019-03-18T08:14:23.856Z,100126.72
2019-03-18T08:17:13.335Z,100131.64
2019-03-18T08:20:03.770Z,100133.68
2019-03-18T08:22:53.898Z,100143.48
2019-03-18T08:25:43.993Z,100148.36
2019-03-18T08:28:34.285Z,100153.16
2019-03-18T08:31:24.791Z,100162.50
2019-03-18T08:34:14.532Z,100166.59
2019-03-18T08:37:04.677Z,100171.38
2019-03-18T08:39:55.713Z,100176.56
2019-03-18T08:42:45.480Z,100175.98
2019-03-18T08:45:35.521Z,100193.95
2019-03-18T08:48:25.079Z,100185.63
2019-03-18T08:51:15.310Z,100185.34
2019-03-18T08:54:05.218Z,100187.53
2019-03-18T08:56:55.237Z,100195.92
2019-03-18T08:59:45.319Z,100194.70
2019-03-18T09:02:35.177Z,100196.05
2019-03-18T09:05:25.404Z,100204.13
2019-03-18T09:08:15.425Z,100204.01
2019-03-18T09:11:05.191Z,100202.66
2019-03-18T09:13:55.104Z,100210.96
2019-03-18T09:16:45.078Z,100204.67
2019-03-18T09:19:34.785Z,100207.30
2019-03-18T09:22:24.783Z,100211.27
2019-03-18T09:25:14.982Z,100219.11
2019-03-18T09:28:05.676Z,100228.86
2019-03-18T09:30:55.490Z,100220.78
2019-03-18T09:33:45.517Z,100240.93
2019-03-18T09:36:35.487Z,100237.24
2019-03-18T09:39:25.180Z,100248.41
2019-03-18T09:42:17.913Z,100244.52
2019-03-18T09:45:07.969Z,100244.80
2019-03-18T09:47:57.818Z,100234.02
2019-03-18T09:50:47.557Z,100236.06
2019-03-18T09:53:37.802Z,100251.26
2019-03-18T09:56:27.720Z,100248.19
2019-03-18T09:59:17.403Z,100248.41
2019-03-18T10:02:07.880Z,100257.33
2019-03-18T10:04:57.922Z,100248.12
2019-03-18T10:07:48.297Z,100259.94
2019-03-18T10:10:37.847Z,100261.00
2019-03-18T10:13:27.943Z,100265.48
2019-03-18T10:16:18.224Z,100263.68
2019-03-18T10:19:08.329Z,100261.13
2019-03-18T10:21:58.443Z,100262.70
2019-03-18T10:24:47.901Z,100264.95
2019-03-18T10:27:37.903Z,100262.18
2019-03-18T10:30:27.940Z,100259.35
2019-03-18T10:33:17.911Z,100253.81
2019-03-18T10:36:07.840Z,100259.93
2019-03-18T10:38:57.597Z,100269.98
2019-03-18T10:41:47.440Z,100264.42
2019-03-18T10:44:37.271Z,100271.52
2019-03-18T10:47:27.322Z,100277.64
2019-03-18T10:50:17.071Z,100276.73
2019-03-18T10:53:07.283Z,100274.69
2019-03-18T10:56:07.141Z,100265.66
2019-03-18T10:58:50.202Z,100256.58
2019-03-18T11:01:40.097Z,100256.54
2019-03-18T11:04:30.178Z,100255.08
2019-03-18T11:07:20.000Z,100264.95
2019-03-18T11:10:12.597Z,100261.73
2019-03-18T11:13:02.732Z,100273.50
2019-03-18T11:15:52.648Z,100276.39
2019-03-18T11:18:42.650Z,100272.94
2019-03-18T11:21:32.762Z,100280.68
2019-03-18T11:24:23.588Z,100273.39
2019-03-18T11:27:14.730Z,100262.58
2019-03-18T11:30:06.072Z,100275.64
2019-03-18T11:32:55.885Z,100267.75
2019-03-18T11:35:45.690Z,100279.78
2019-03-18T11:38:36.637Z,100282.23
2019-03-18T11:41:26.496Z,100280.05
2019-03-18T11:44:16.653Z,100277.78
2019-03-18T11:47:06.628Z,100288.30
2019-03-18T11:49:56.131Z,100275.50
2019-03-18T11:52:45.835Z,100279.11
2019-03-18T11:55:35.690Z,100280.30
2019-03-18T11:58:26.750Z,100280.36
2019-03-18T12:01:16.327Z,100280.38
2019-03-18T12:04:06.558Z,100272.78
2019-03-18T12:06:56.548Z,100275.84
2019-03-18T12:09:46.593Z,100279.17
2019-03-18T12:12:36.912Z,100271.84
2019-03-18T12:15:26.877Z,100279.25
2019-03-18T12:18:16.889Z,100284.94
2019-03-18T12:21:06.780Z,100279.03
2019-03-18T12:23:56.822Z,100281.56
2019-03-18T12:26:49.260Z,100280.65
2019-03-18T12:29:38.925Z,100281.14
2019-03-18T12:32:28.840Z,100283.70
2019-03-18T12:35:18.542Z,100286.34
2019-03-18T12:38:08.404Z,100292.28
2019-03-18T12:40:58.498Z,100293.17
2019-03-18T12:43:48.547Z,100278.05
2019-03-18T12:46:38.230Z,100274.57
2019-03-18T12:49:28.051Z,100277.18
2019-03-18T12:52:18.183Z,100284.13
2019-03-18T12:55:08.105Z,100282.79
2019-03-18T12:57:58.036Z,100278.12
2019-03-18T13:00:47.938Z,100278.41
2019-03-18T13:03:37.957Z,100280.92
2019-03-18T13:06:27.570Z,100281.22
2019-03-18T13:09:17.392Z,100270.92
2019-03-18T13:12:07.528Z,100260.69
2019-03-18T13:14:57.663Z,100269.12
2019-03-18T13:17:47.601Z,100256.80
2019-03-18T13:20:37.715Z,100270.42
2019-03-18T13:23:27.521Z,100267.98
2019-03-18T13:26:17.068Z,100266.95
2019-03-18T13:29:06.951Z,100272.14
2019-03-18T13:31:56.894Z,100286.87
2019-03-18T13:34:47.716Z,100292.69
2019-03-18T13:37:37.560Z,100291.45
2019-03-18T13:40:27.521Z,100295.00
2019-03-18T13:43:17.675Z,100295.42
2019-03-18T13:46:07.516Z,100286.90
2019-03-18T13:48:57.191Z,100285.96
2019-03-18T13:51:47.279Z,100301.42
2019-03-18T13:54:37.547Z,100297.31
2019-03-18T13:57:27.535Z,100297.69
2019-03-18T14:00:17.905Z,100302.69
2019-03-18T14:03:07.279Z,100308.15
2019-03-18T14:05:57.410Z,100302.72
2019-03-18T14:08:47.454Z,100310.74
2019-03-18T14:11:37.228Z,100311.90
2019-03-18T14:14:26.860Z,100310.74
2019-03-18T14:17:16.874Z,100312.16
2019-03-18T14:20:08.365Z,100313.75
2019-03-18T14:22:58.597Z,100335.25
2019-03-18T14:25:48.119Z,100330.22
2019-03-18T14:28:37.897Z,100342.18
2019-03-18T14:31:28.054Z,100344.02
2019-03-18T14:34:20.414Z,100350.33
2019-03-18T14:37:10.695Z,100356.33
2019-03-18T14:40:00.414Z,100346.10
2019-03-18T14:42:49.797Z,100349.44
2019-03-18T14:45:39.724Z,100362.89
2019-03-18T14:48:29.060Z,100352.73
2019-03-18T14:51:18.206Z,100365.41
2019-03-18T14:54:09.813Z,100366.62
2019-03-18T14:56:59.868Z,100392.53
2019-03-18T14:59:50.057Z,100385.95
2019-03-18T15:02:40.568Z,100382.80
2019-03-18T15:05:30.271Z,100372.57
2019-03-18T15:08:19.884Z,100388.53
2019-03-18T15:11:10.418Z,100388.24
2019-03-18T15:14:00.526Z,100382.71
2019-03-18T15:16:50.212Z,100380.98
2019-03-18T15:19:39.724Z,100384.99
2019-03-18T15:22:30.138Z,100382.53
2019-03-18T15:25:21.498Z,100390.82
2019-03-18T15:28:11.095Z,100397.01
2019-03-18T15:31:00.849Z,100403.96
2019-03-18T15:33:52.171Z,100408.27
2019-03-18T15:36:42.425Z,100415.09
2019-03-18T15:39:32.463Z,100416.91
2019-03-18T15:42:22.371Z,100422.01
2019-03-18T15:45:13.580Z,100417.72
2019-03-18T15:48:03.651Z,100422.37
2019-03-18T15:50:53.584Z,100409.86
2019-03-18T15:53:43.523Z,100424.58
2019-03-18T15:56:32.776Z,100419.19
2019-03-18T15:59:22.516Z,100424.05
2019-03-18T16:02:12.160Z,100420.36
2019-03-18T16:05:02.148Z,100424.60
2019-03-18T16:07:52.092Z,100424.53
2019-03-18T16:10:41.669Z,100428.00
2019-03-18T16:13:31.712Z,100429.86
2019-03-18T16:16:23.565Z,100444.14
2019-03-18T16:19:13.595Z,100446.71
2019-03-18T16:22:03.083Z,100446.05
2019-03-18T16:24:52.769Z,100453.64
2019-03-18T16:27:42.732Z,100449.76
2019-03-18T16:30:32.966Z,100456.20
2019-03-18T16:33:23.345Z,100458.74
2019-03-18T16:36:13.364Z,100468.80
2019-03-18T16:39:03.076Z,100467.00
2019-03-18T16:41:54.482Z,100479.91
2019-03-18T16:44:44.522Z,100477.37
2019-03-18T16:47:34.247Z,100483.38
2019-03-18T16:50:24.075Z,100481.28
2019-03-18T16:53:13.872Z,100497.89
2019-03-18T16:56:03.761Z,100504.67
2019-03-18T16:58:53.705Z,100508.22
2019-03-18T17:01:43.804Z,100510.25
2019-03-18T17:04:33.646Z,100519.79
2019-03-18T17:07:23.400Z,100518.87
2019-03-18T17:10:14.369Z,100520.16
2019-03-18T17:13:04.479Z,100530.78
2019-03-18T17:15:54.174Z,100536.05
2019-03-18T17:18:45.063Z,100544.00
2019-03-18T17:21:35.259Z,100536.69
2019-03-18T17:24:25.726Z,100542.45
2019-03-18T17:27:15.582Z,100545.91
2019-03-18T17:30:08.966Z,100553.09
2019-03-18T17:32:59.774Z,100557.70
2019-03-18T17:35:49.715Z,100567.67
2019-03-18T17:38:39.844Z,100573.75
2019-03-18T17:41:29.404Z,100578.55
2019-03-18T17:44:19.318Z,100579.94
2019-03-18T17:47:09.154Z,100596.16
2019-03-18T17:49:59.322Z,100596.02
2019-03-18T17:53:01.692Z,100599.75
2019-03-18T17:55:41.045Z,100599.58
2019-03-18T17:58:31.275Z,100600.56
2019-03-18T18:01:21.487Z,100602.86
2019-03-18T18:04:11.731Z,100613.66
2019-03-18T18:07:01.801Z,100614.41
2019-03-18T18:09:51.290Z,100620.01
2019-03-18T18:12:41.396Z,100623.45
2019-03-18T18:15:31.430Z,100626.77
2019-03-18T18:18:21.596Z,100641.73
2019-03-18T18:21:10.973Z,100638.22
2019-03-18T18:24:00.801Z,100642.78
2019-03-18T18:26:51.320Z,100645.77
2019-03-18T18:29:40.482Z,100648.23
2019-03-18T18:32:29.792Z,100650.14
2019-03-18T18:35:20.045Z,100662.09
2019-03-18T18:38:10.547Z,100659.62
2019-03-18T18:41:00.111Z,100665.25
2019-03-18T18:43:49.524Z,100665.61
2019-03-18T18:46:39.698Z,100670.39
2019-03-18T18:49:29.682Z,100677.48
2019-03-18T18:52:19.751Z,100685.00
2019-03-18T18:55:10.420Z,100690.91
2019-03-18T18:58:00.315Z,100692.89
2019-03-18T19:00:50.203Z,100692.80
2019-03-18T19:03:40.012Z,100700.91
2019-03-18T19:06:30.005Z,100710.31
2019-03-18T19:09:19.770Z,100709.70
2019-03-18T19:12:10.068Z,100285.69
2019-03-18T19:15:00.087Z,100728.06
2019-03-18T19:17:51.860Z,100725.16
2019-03-18T19:20:42.836Z,100735.33
2019-03-18T19:23:37.454Z,100737.19
2019-03-18T19:26:24.092Z,100747.45
2019-03-18T19:29:14.117Z,100748.38
2019-03-18T19:32:04.801Z,100755.33
2019-03-18T19:34:54.663Z,100757.62
2019-03-18T19:37:44.916Z,100756.47
2019-03-18T19:40:34.808Z,100767.57
2019-03-18T19:43:24.761Z,100765.72
2019-03-18T19:46:15.038Z,100773.25
2019-03-18T19:49:04.823Z,100770.67
2019-03-18T19:51:54.151Z,100772.74
2019-03-18T19:54:43.621Z,100778.97
2019-03-18T19:57:33.575Z,100773.58
2019-03-18T20:00:23.635Z,100778.64
2019-03-18T20:03:13.674Z,100785.59
2019-03-18T20:06:03.662Z,100784.65
2019-03-18T20:08:53.517Z,100795.42
2019-03-18T20:11:42.790Z,100794.80
2019-03-18T20:14:32.759Z,100799.57
2019-03-18T20:17:22.647Z,100805.36
2019-03-18T20:20:13.999Z,100805.98
2019-03-18T20:23:04.169Z,100807.71
2019-03-18T20:25:54.219Z,100810.62
2019-03-18T20:28:44.120Z,100812.80
2019-03-18T20:31:34.167Z,100821.27
2019-03-18T20:34:25.529Z,100822.38
2019-03-18T20:37:15.651Z,100832.73
2019-03-18T20:40:06.481Z,100827.96
2019-03-18T20:42:56.367Z,100838.28
2019-03-18T20:45:45.537Z,100836.63
2019-03-18T20:48:34.801Z,100846.31
2019-03-18T20:51:24.426Z,100854.98
2019-03-18T20:54:14.694Z,100847.40
2019-03-18T20:57:04.281Z,100854.84
2019-03-18T20:59:54.174Z,100856.12
2019-03-18T21:02:44.471Z,100870.47
2019-03-18T21:05:35.373Z,100877.58
2019-03-18T21:08:24.942Z,100880.05
2019-03-18T21:11:13.967Z,100881.66
2019-03-18T21:14:04.408Z,100887.50
2019-03-18T21:16:54.475Z,100892.96
2019-03-18T21:19:44.367Z,100891.36
2019-03-18T21:22:34.876Z,100895.35
2019-03-18T21:25:24.914Z,100894.92
2019-03-18T21:28:15.146Z,100899.25
2019-03-18T21:31:05.381Z,100903.28
2019-03-18T21:33:55.064Z,100906.34
2019-03-18T21:36:45.280Z,100908.70
2019-03-18T21:39:35.586Z,100915.88
2019-03-18T21:42:25.386Z,100922.91
2019-03-18T21:45:16.871Z,100924.33
2019-03-18T21:48:06.957Z,100922.68
2019-03-18T21:50:56.276Z,100925.41
2019-03-18T21:53:45.699Z,100932.46
2019-03-18T21:56:35.550Z,100930.98
2019-03-18T21:59:24.760Z,100930.78
2019-03-18T22:02:14.113Z,100937.50
2019-03-18T22:05:04.200Z,100936.49
2019-03-18T22:07:54.431Z,100941.60
2019-03-18T22:10:44.435Z,100941.73
2019-03-18T22:13:34.091Z,100940.33
2019-03-18T22:16:23.754Z,100945.64
2019-03-18T22:19:15.772Z,100953.39
2019-03-18T22:22:05.024Z,100941.87
2019-03-18T22:24:54.791Z,100948.77
2019-03-18T22:27:45.230Z,100948.63
2019-03-18T22:30:35.509Z,100950.52
2019-03-18T22:33:25.266Z,100950.25
2019-03-18T22:36:15.408Z,100953.81
2019-03-18T22:39:07.944Z,100959.75
2019-03-18T22:41:57.701Z,100964.19
2019-03-18T22:44:47.278Z,100963.52
2019-03-18T22:47:37.465Z,100959.55
2019-03-18T22:50:27.245Z,100954.61
2019-03-18T22:53:17.543Z,100952.89
2019-03-18T22:56:07.126Z,100958.63
2019-03-18T22:58:56.382Z,100960.47
2019-03-18T23:01:46.165Z,100963.72
2019-03-18T23:04:35.841Z,100966.61
2019-03-18T23:07:26.389Z,100971.00
2019-03-18T23:10:16.270Z,100972.20
2019-03-18T23:13:06.197Z,100975.79
2019-03-18T23:15:56.211Z,100981.16
2019-03-18T23:18:46.139Z,100982.92
2019-03-18T23:21:36.214Z,100983.42
2019-03-18T23:24:26.050Z,100988.43
2019-03-18T23:27:15.539Z,100988.94
2019-03-18T23:30:05.689Z,100993.97
2019-03-18T23:32:55.219Z,100996.34
2019-03-18T23:35:45.099Z,101000.73
2019-03-18T23:38:35.074Z,101002.07
2019-03-18T23:41:24.974Z,101009.48
2019-03-18T23:44:14.249Z,101012.72
2019-03-18T23:47:03.989Z,101011.04
2019-03-18T23:49:53.408Z,101013.27
2019-03-18T23:52:43.565Z,101017.36
2019-03-18T23:55:33.583Z,101007.67
2019-03-18T23:58:23.495Z,101007.53
